createdAt,value
2023-06-21T00:00:36.907Z,19.35
2023-06-21T00:03:06.002Z,19.43
2023-06-21T00:05:35.260Z,19.44
2023-06-21T00:08:04.887Z,19.43
2023-06-21T00:10:33.843Z,19.39
2023-06-21T00:13:09.894Z,19.37
2023-06-21T00:15:38.585Z,19.32
2023-06-21T00:18:10.466Z,19.29
2023-06-21T00:20:39.592Z,19.27
2023-06-21T00:23:09.869Z,19.22
2023-06-21T00:25:39.658Z,19.15
2023-06-21T00:28:08.287Z,19.11
2023-06-21T00:30:37.007Z,19.11
2023-06-21T00:33:05.757Z,19.16
2023-06-21T00:35:34.339Z,19.13
2023-06-21T00:38:02.625Z,19.16
2023-06-21T00:40:35.618Z,19.21
2023-06-21T00:43:05.066Z,19.19
2023-06-21T00:45:39.474Z,19.21
2023-06-21T00:48:07.893Z,19.16
2023-06-21T00:50:36.025Z,19.08
2023-06-21T00:53:04.366Z,19.11
2023-06-21T00:55:35.125Z,19.07
2023-06-21T00:58:04.334Z,19.03
2023-06-21T01:00:32.670Z,19.10
2023-06-21T01:03:01.259Z,19.06
2023-06-21T01:05:31.740Z,18.99
2023-06-21T01:08:07.223Z,18.89
2023-06-21T01:10:50.728Z,18.76
2023-06-21T01:13:30.552Z,18.77
2023-06-21T01:16:06.336Z,18.82
2023-06-21T01:18:36.450Z,18.77
2023-06-21T01:21:07.209Z,18.81
2023-06-21T01:23:52.250Z,18.78
2023-06-21T01:26:44.597Z,18.73
2023-06-21T01:29:16.690Z,18.78
2023-06-21T01:31:46.708Z,18.77
2023-06-21T01:34:15.792Z,18.69
2023-06-21T01:36:44.534Z,18.74
2023-06-21T01:39:12.890Z,18.75
2023-06-21T01:41:42.192Z,18.68
2023-06-21T01:44:11.847Z,18.62
2023-06-21T01:46:42.405Z,18.64
2023-06-21T01:49:11.711Z,18.58
2023-06-21T01:51:43.987Z,18.54
2023-06-21T01:54:13.004Z,18.49
2023-06-21T01:56:44.184Z,18.38
2023-06-21T01:59:12.494Z,18.31
2023-06-21T02:01:51.670Z,18.19
2023-06-21T02:04:21.147Z,18.24
2023-06-21T02:06:51.704Z,18.22
2023-06-21T02:09:21.671Z,18.22
2023-06-21T02:11:50.813Z,18.17
2023-06-21T02:14:19.579Z,18.20
2023-06-21T02:16:50.964Z,18.20
2023-06-21T02:19:20.199Z,18.20
2023-06-21T02:21:48.568Z,18.20
2023-06-21T02:24:16.997Z,18.20
2023-06-21T02:26:45.407Z,18.21
2023-06-21T02:29:13.825Z,18.08
2023-06-21T02:31:42.155Z,18.10
2023-06-21T02:34:11.946Z,18.10
2023-06-21T02:36:40.831Z,18.09
2023-06-21T02:39:09.289Z,18.03
2023-06-21T02:41:37.351Z,18.02
2023-06-21T02:44:06.047Z,18.00
2023-06-21T02:46:34.893Z,17.96
2023-06-21T02:49:03.405Z,17.89
2023-06-21T02:51:33.116Z,17.88
2023-06-21T02:54:01.250Z,17.88
2023-06-21T02:56:31.628Z,17.83
2023-06-21T02:58:59.935Z,17.86
2023-06-21T03:01:28.192Z,17.94
2023-06-21T03:03:56.556Z,17.97
2023-06-21T03:06:24.909Z,18.10
2023-06-21T03:08:54.698Z,18.11
2023-06-21T03:11:22.921Z,18.13
2023-06-21T03:13:51.153Z,18.19
2023-06-21T03:16:19.498Z,18.34
2023-06-21T03:18:47.669Z,18.43
2023-06-21T03:21:17.903Z,18.58
2023-06-21T03:23:46.211Z,18.67
2023-06-21T03:26:15.996Z,18.73
2023-06-21T03:28:44.238Z,18.85
2023-06-21T03:31:12.656Z,18.88
2023-06-21T03:33:40.868Z,18.95
2023-06-21T03:36:09.131Z,19.04
2023-06-21T03:38:37.393Z,19.25
2023-06-21T03:41:05.578Z,19.41
2023-06-21T03:43:35.236Z,19.54
2023-06-21T03:46:04.035Z,19.59
2023-06-21T03:48:32.077Z,19.58
2023-06-21T03:51:01.013Z,19.76
2023-06-21T03:53:29.428Z,19.93
2023-06-21T03:55:57.465Z,20.02
2023-06-21T03:58:25.614Z,20.09
2023-06-21T04:00:55.063Z,20.21
2023-06-21T04:03:23.281Z,20.33
2023-06-21T04:05:51.643Z,20.49
2023-06-21T04:08:19.755Z,20.60
2023-06-21T04:10:47.989Z,20.69
2023-06-21T04:13:16.206Z,20.66
2023-06-21T04:15:44.521Z,20.78
2023-06-21T04:18:13.965Z,20.91
2023-06-21T04:20:42.134Z,20.99
2023-06-21T04:23:10.272Z,21.03
2023-06-21T04:25:38.354Z,21.27
2023-06-21T04:28:06.556Z,21.44
2023-06-21T04:30:35.967Z,21.54
2023-06-21T04:33:04.606Z,21.68
2023-06-21T04:35:34.606Z,21.70
2023-06-21T04:38:02.907Z,21.78
2023-06-21T04:40:32.086Z,21.92
2023-06-21T04:43:02.619Z,22.09
2023-06-21T04:45:33.106Z,22.29
2023-06-21T04:48:01.708Z,22.35
2023-06-21T04:50:30.764Z,22.39
2023-06-21T04:53:00.981Z,22.52
2023-06-21T04:55:30.349Z,22.65
2023-06-21T04:58:00.699Z,22.84
2023-06-21T05:00:29.701Z,22.98
2023-06-21T05:02:58.396Z,23.05
2023-06-21T05:05:26.826Z,23.06
2023-06-21T05:07:55.141Z,23.12
2023-06-21T05:10:25.432Z,23.37
2023-06-21T05:12:54.035Z,23.52
2023-06-21T05:15:22.560Z,23.73
2023-06-21T05:17:50.809Z,23.79
2023-06-21T05:20:20.954Z,24.12
2023-06-21T05:22:50.376Z,24.14
2023-06-21T05:25:18.614Z,24.30
2023-06-21T05:27:48.317Z,24.27
2023-06-21T05:30:16.988Z,24.46
2023-06-21T05:32:45.142Z,24.65
2023-06-21T05:35:13.387Z,24.75
2023-06-21T05:37:41.510Z,24.86
2023-06-21T05:40:12.583Z,25.14
2023-06-21T05:42:40.883Z,25.32
2023-06-21T05:45:11.782Z,25.27
2023-06-21T05:47:40.365Z,25.34
2023-06-21T05:50:09.251Z,25.36
2023-06-21T05:52:37.857Z,25.35
2023-06-21T05:55:06.641Z,25.54
2023-06-21T05:57:34.964Z,25.88
2023-06-21T06:00:04.831Z,25.55
2023-06-21T06:02:35.350Z,25.26
2023-06-21T06:05:03.587Z,25.35
2023-06-21T06:07:32.109Z,25.62
2023-06-21T06:10:00.547Z,26.03
2023-06-21T06:12:28.710Z,26.35
2023-06-21T06:14:57.356Z,26.52
2023-06-21T06:17:26.150Z,26.66
2023-06-21T06:19:56.143Z,26.51
2023-06-21T06:22:25.260Z,26.55
2023-06-21T06:24:54.251Z,26.01
2023-06-21T06:27:22.610Z,26.02
2023-06-21T06:29:53.380Z,26.10
2023-06-21T06:32:21.892Z,26.19
2023-06-21T06:34:50.853Z,26.26
2023-06-21T06:37:23.809Z,26.29
2023-06-21T06:39:55.194Z,26.20
2023-06-21T06:42:23.768Z,26.00
2023-06-21T06:44:54.569Z,26.02
2023-06-21T06:47:23.527Z,25.89
2023-06-21T06:49:52.700Z,26.03
2023-06-21T06:52:22.975Z,26.21
2023-06-21T06:54:52.353Z,26.18
2023-06-21T06:57:33.944Z,26.18
2023-06-21T07:00:10.611Z,26.30
2023-06-21T07:02:39.183Z,26.40
2023-06-21T07:05:08.178Z,26.45
2023-06-21T07:07:38.807Z,26.34
2023-06-21T07:10:08.172Z,26.44
2023-06-21T07:12:36.446Z,26.53
2023-06-21T07:15:05.064Z,26.72
2023-06-21T07:17:33.498Z,26.69
2023-06-21T07:20:01.848Z,26.58
2023-06-21T07:22:30.178Z,26.73
2023-06-21T07:25:00.195Z,26.92
2023-06-21T07:27:29.039Z,26.99
2023-06-21T07:29:57.972Z,26.89
2023-06-21T07:32:31.767Z,26.61
2023-06-21T07:35:00.407Z,26.68
2023-06-21T07:37:29.481Z,26.74
2023-06-21T07:39:59.267Z,26.89
2023-06-21T07:42:27.856Z,27.04
2023-06-21T07:44:57.243Z,27.24
2023-06-21T07:47:25.900Z,27.25
2023-06-21T07:49:54.623Z,27.41
2023-06-21T07:52:23.037Z,27.43
2023-06-21T07:54:51.425Z,27.58
2023-06-21T07:57:21.671Z,27.62
2023-06-21T07:59:50.088Z,27.64
2023-06-21T08:02:19.747Z,27.71
2023-06-21T08:04:48.619Z,27.74
2023-06-21T08:07:18.206Z,27.90
2023-06-21T08:09:46.534Z,27.63
2023-06-21T08:12:15.425Z,27.83
2023-06-21T08:14:45.800Z,27.88
2023-06-21T08:17:15.995Z,27.81
2023-06-21T08:19:44.590Z,27.62
2023-06-21T08:22:13.048Z,27.71
2023-06-21T08:24:41.393Z,27.87
2023-06-21T08:27:10.794Z,28.00
2023-06-21T08:29:39.231Z,28.13
2023-06-21T08:32:09.432Z,28.15
2023-06-21T08:34:37.862Z,28.07
2023-06-21T08:37:07.369Z,28.16
2023-06-21T08:39:35.654Z,28.40
2023-06-21T08:42:04.176Z,28.52
2023-06-21T08:44:36.058Z,28.54
2023-06-21T08:47:09.373Z,28.40
2023-06-21T08:49:42.023Z,28.58
2023-06-21T08:52:13.894Z,28.91
2023-06-21T08:54:46.084Z,29.07
2023-06-21T08:57:20.834Z,29.31
2023-06-21T08:59:53.326Z,29.45
2023-06-21T09:02:35.438Z,29.43
2023-06-21T09:05:09.045Z,29.38
2023-06-21T09:07:39.264Z,29.33
2023-06-21T09:10:10.808Z,29.11
2023-06-21T09:12:42.060Z,29.21
2023-06-21T09:15:12.796Z,29.31
2023-06-21T09:17:46.652Z,29.61
2023-06-21T09:20:16.424Z,29.62
2023-06-21T09:22:47.595Z,29.64
2023-06-21T09:25:16.347Z,29.55
2023-06-21T09:27:44.854Z,29.43
2023-06-21T09:32:47.406Z,29.57
2023-06-21T09:35:15.802Z,29.63
2023-06-21T09:37:45.869Z,29.55
2023-06-21T09:40:15.881Z,29.69
2023-06-21T09:42:46.294Z,29.96
2023-06-21T09:45:19.577Z,30.12
2023-06-21T09:47:49.782Z,30.25
2023-06-21T09:50:18.056Z,30.33
2023-06-21T09:52:46.632Z,30.26
2023-06-21T09:55:15.703Z,30.44
2023-06-21T09:57:44.400Z,30.44
2023-06-21T10:00:14.643Z,30.35
2023-06-21T10:02:43.545Z,30.44
2023-06-21T10:05:20.095Z,30.59
2023-06-21T10:07:49.141Z,30.76
2023-06-21T10:10:21.581Z,30.88
2023-06-21T10:12:55.719Z,30.75
2023-06-21T10:15:25.951Z,30.73
2023-06-21T10:20:33.499Z,30.86
2023-06-21T10:23:04.924Z,30.88
2023-06-21T10:25:33.956Z,30.88
2023-06-21T10:28:03.801Z,30.84
2023-06-21T10:30:50.796Z,30.98
2023-06-21T10:33:19.658Z,31.15
2023-06-21T10:35:53.991Z,31.30
2023-06-21T10:38:38.824Z,31.41
2023-06-21T10:41:07.956Z,31.56
2023-06-21T10:43:46.072Z,31.70
2023-06-21T10:46:17.033Z,31.73
2023-06-21T10:48:50.028Z,31.83
2023-06-21T10:51:25.591Z,31.73
2023-06-21T10:53:57.604Z,31.92
2023-06-21T10:56:27.260Z,31.97
2023-06-21T10:58:55.756Z,31.94
2023-06-21T11:01:24.977Z,31.90
2023-06-21T11:03:55.839Z,31.90
2023-06-21T11:06:34.097Z,31.84
2023-06-21T11:09:11.682Z,31.84
2023-06-21T11:11:44.605Z,31.89
2023-06-21T11:14:13.888Z,31.32
2023-06-21T11:16:42.100Z,31.04
2023-06-21T11:19:14.579Z,30.87
2023-06-21T11:21:50.807Z,30.93
2023-06-21T11:24:20.903Z,31.03
2023-06-21T11:26:59.842Z,31.27
2023-06-21T11:29:30.751Z,31.39
2023-06-21T11:32:17.950Z,31.60
2023-06-21T11:34:57.814Z,31.88
2023-06-21T11:37:42.358Z,32.12
2023-06-21T11:40:11.814Z,32.28
2023-06-21T11:42:44.703Z,32.41
2023-06-21T11:45:29.302Z,32.48
2023-06-21T11:48:02.170Z,32.26
2023-06-21T11:50:36.177Z,31.68
2023-06-21T11:53:19.914Z,31.52
2023-06-21T11:55:49.031Z,31.82
2023-06-21T11:58:17.517Z,31.88
2023-06-21T12:00:47.105Z,31.82
2023-06-21T12:03:16.465Z,31.79
2023-06-21T12:05:46.581Z,31.83
2023-06-21T12:08:18.238Z,31.68
2023-06-21T12:10:47.438Z,31.64
2023-06-21T12:13:16.633Z,31.71
2023-06-21T12:15:50.038Z,31.70
2023-06-21T12:18:18.640Z,31.84
2023-06-21T12:20:46.814Z,32.14
2023-06-21T12:23:16.438Z,32.04
2023-06-21T12:25:46.219Z,32.15
2023-06-21T12:28:16.052Z,32.08
2023-06-21T12:30:52.141Z,31.97
2023-06-21T12:33:20.833Z,31.93
2023-06-21T12:35:49.001Z,31.86
2023-06-21T12:38:19.672Z,31.74
2023-06-21T12:40:55.368Z,31.78
2023-06-21T12:43:34.966Z,31.91
2023-06-21T12:46:05.190Z,32.05
2023-06-21T12:48:33.683Z,32.21
2023-06-21T12:51:02.121Z,32.35
2023-06-21T12:53:41.240Z,32.35
2023-06-21T12:56:10.878Z,32.48
2023-06-21T12:58:39.857Z,32.23
2023-06-21T13:01:08.550Z,32.12
2023-06-21T13:03:37.262Z,32.26
2023-06-21T13:06:05.850Z,32.34
2023-06-21T13:08:36.358Z,32.41
2023-06-21T13:11:06.213Z,32.45
2023-06-21T13:13:34.448Z,32.53
2023-06-21T13:16:03.820Z,32.53
2023-06-21T13:18:34.934Z,32.60
2023-06-21T13:21:03.484Z,32.47
2023-06-21T13:23:31.562Z,32.43
2023-06-21T13:26:01.217Z,32.29
2023-06-21T13:28:29.487Z,32.17
2023-06-21T13:30:58.040Z,31.65
2023-06-21T13:33:26.495Z,31.56
2023-06-21T13:35:55.142Z,31.65
2023-06-21T13:38:23.853Z,31.81
2023-06-21T13:40:52.494Z,32.17
2023-06-21T13:43:22.031Z,32.36
2023-06-21T13:45:50.235Z,32.54
2023-06-21T13:48:18.972Z,32.60
2023-06-21T13:50:47.136Z,32.62
2023-06-21T13:53:15.281Z,32.76
2023-06-21T13:55:43.405Z,32.92
2023-06-21T13:58:11.500Z,33.10
2023-06-21T14:00:41.004Z,33.13
2023-06-21T14:03:09.363Z,33.18
2023-06-21T14:05:37.901Z,33.23
2023-06-21T14:08:06.553Z,33.09
2023-06-21T14:10:34.866Z,32.97
2023-06-21T14:13:03.194Z,32.76
2023-06-21T14:15:31.912Z,32.83
2023-06-21T14:18:04.687Z,32.87
2023-06-21T14:20:34.140Z,33.06
2023-06-21T14:23:02.457Z,33.53
2023-06-21T14:25:31.656Z,33.60
2023-06-21T14:28:00.058Z,33.55
2023-06-21T14:30:29.244Z,33.54
2023-06-21T14:32:57.862Z,33.42
2023-06-21T14:35:27.927Z,33.11
2023-06-21T14:37:58.859Z,33.16
2023-06-21T14:40:27.748Z,33.14
2023-06-21T14:42:57.436Z,33.02
2023-06-21T14:45:32.387Z,32.73
2023-06-21T14:48:01.922Z,32.50
2023-06-21T14:50:32.382Z,32.33
2023-06-21T14:53:00.758Z,32.05
2023-06-21T14:55:29.984Z,31.88
2023-06-21T14:57:58.447Z,31.81
2023-06-21T15:00:27.421Z,31.83
2023-06-21T15:02:56.590Z,31.72
2023-06-21T15:05:25.357Z,31.50
2023-06-21T15:07:55.053Z,31.64
2023-06-21T15:10:23.543Z,31.97
2023-06-21T15:13:01.494Z,32.20
2023-06-21T15:15:31.612Z,32.34
2023-06-21T15:18:00.961Z,32.30
2023-06-21T15:20:29.510Z,31.96
2023-06-21T15:22:59.539Z,31.96
2023-06-21T15:25:28.177Z,31.81
2023-06-21T15:27:56.881Z,32.03
2023-06-21T15:30:25.205Z,31.97
2023-06-21T15:32:54.964Z,32.09
2023-06-21T15:35:23.280Z,32.02
2023-06-21T15:37:52.082Z,31.70
2023-06-21T15:40:21.783Z,31.70
2023-06-21T15:42:50.002Z,31.83
2023-06-21T15:45:18.339Z,31.68
2023-06-21T15:47:47.437Z,31.56
2023-06-21T15:50:16.184Z,31.56
2023-06-21T15:52:44.364Z,31.55
2023-06-21T15:55:12.500Z,31.64
2023-06-21T15:57:42.655Z,31.65
2023-06-21T16:00:11.877Z,31.64
2023-06-21T16:02:40.353Z,31.54
2023-06-21T16:05:11.352Z,31.54
2023-06-21T16:07:39.841Z,31.60
2023-06-21T16:10:09.011Z,31.61
2023-06-21T16:12:43.373Z,31.76
2023-06-21T16:15:12.882Z,31.80
2023-06-21T16:17:43.013Z,31.93
2023-06-21T16:20:12.315Z,31.73
2023-06-21T16:22:40.751Z,31.72
2023-06-21T16:25:09.704Z,31.71
2023-06-21T16:27:38.164Z,31.59
2023-06-21T16:30:09.302Z,31.47
2023-06-21T16:32:37.909Z,31.59
2023-06-21T16:35:09.879Z,31.44
2023-06-21T16:37:39.296Z,31.26
2023-06-21T16:40:10.223Z,31.31
2023-06-21T16:42:38.491Z,31.38
2023-06-21T16:45:11.686Z,31.38
2023-06-21T16:47:39.907Z,31.36
2023-06-21T16:50:08.797Z,31.30
2023-06-21T16:52:37.073Z,31.26
2023-06-21T16:55:07.001Z,31.21
2023-06-21T16:57:35.595Z,31.15
2023-06-21T17:00:04.296Z,31.08
2023-06-21T17:02:35.483Z,30.93
2023-06-21T17:05:03.931Z,30.93
2023-06-21T17:07:33.288Z,30.99
2023-06-21T17:10:01.573Z,30.98
2023-06-21T17:12:29.674Z,30.96
2023-06-21T17:14:59.621Z,30.84
2023-06-21T17:17:30.677Z,30.67
2023-06-21T17:20:00.426Z,30.59
2023-06-21T17:22:28.812Z,30.66
2023-06-21T17:24:58.176Z,30.68
2023-06-21T17:27:26.509Z,30.65
2023-06-21T17:29:54.907Z,30.59
2023-06-21T17:32:23.185Z,30.57
2023-06-21T17:34:53.926Z,30.50
2023-06-21T17:37:23.592Z,30.52
2023-06-21T17:39:51.961Z,30.47
2023-06-21T17:42:20.220Z,30.43
2023-06-21T17:44:48.507Z,30.35
2023-06-21T17:47:17.235Z,30.30
2023-06-21T17:49:45.752Z,30.23
2023-06-21T17:52:14.079Z,30.16
2023-06-21T17:54:43.821Z,30.06
2023-06-21T17:57:12.147Z,29.93
2023-06-21T17:59:40.776Z,29.80
2023-06-21T18:02:09.204Z,29.66
2023-06-21T18:04:37.736Z,29.54
2023-06-21T18:07:06.621Z,29.46
2023-06-21T18:09:35.180Z,29.35
2023-06-21T18:12:06.954Z,29.27
2023-06-21T18:14:35.318Z,29.17
2023-06-21T18:17:06.655Z,29.09
2023-06-21T18:19:35.805Z,29.02
2023-06-21T18:22:12.912Z,28.92
2023-06-21T18:24:42.271Z,28.83
2023-06-21T18:27:12.951Z,28.74
2023-06-21T18:29:53.430Z,28.66
2023-06-21T18:32:30.056Z,28.55
2023-06-21T18:34:59.379Z,28.50
2023-06-21T18:37:28.288Z,28.41
2023-06-21T18:39:59.805Z,28.34
2023-06-21T18:42:30.819Z,28.28
2023-06-21T18:44:59.608Z,28.23
2023-06-21T18:47:31.821Z,28.16
2023-06-21T18:50:03.238Z,28.09
2023-06-21T18:52:31.877Z,28.03
2023-06-21T18:55:00.566Z,27.95
2023-06-21T18:57:31.042Z,27.86
2023-06-21T19:00:02.230Z,27.77
2023-06-21T19:02:30.893Z,27.67
2023-06-21T19:05:02.849Z,27.57
2023-06-21T19:07:35.872Z,27.53
2023-06-21T19:10:05.760Z,27.50
2023-06-21T19:12:36.647Z,27.46
2023-06-21T19:15:07.175Z,27.39
2023-06-21T19:17:36.589Z,27.34
2023-06-21T19:20:05.713Z,27.26
2023-06-21T19:22:39.265Z,27.28
2023-06-21T19:25:08.559Z,27.13
2023-06-21T19:27:40.607Z,27.00
2023-06-21T19:30:10.198Z,26.89
2023-06-21T19:32:39.957Z,26.84
2023-06-21T19:35:12.340Z,26.79
2023-06-21T19:37:40.763Z,26.72
2023-06-21T19:40:12.826Z,26.66
2023-06-21T19:42:44.964Z,26.62
2023-06-21T19:45:16.668Z,26.60
2023-06-21T19:47:46.210Z,26.54
2023-06-21T19:50:15.319Z,26.36
2023-06-21T19:52:45.863Z,26.31
2023-06-21T19:55:15.861Z,26.28
2023-06-21T19:57:46.011Z,26.20
2023-06-21T20:00:16.467Z,26.12
2023-06-21T20:02:45.447Z,26.03
2023-06-21T20:05:14.672Z,25.96
2023-06-21T20:07:43.355Z,25.96
2023-06-21T20:10:12.765Z,25.92
2023-06-21T20:12:41.342Z,25.86
2023-06-21T20:15:12.555Z,25.78
2023-06-21T20:17:40.715Z,25.73
2023-06-21T20:20:10.933Z,25.68
2023-06-21T20:22:41.189Z,25.66
2023-06-21T20:25:10.554Z,25.63
2023-06-21T20:27:38.709Z,25.57
2023-06-21T20:30:08.056Z,25.52
2023-06-21T20:32:37.756Z,25.45
2023-06-21T20:35:06.860Z,25.42
2023-06-21T20:37:35.270Z,25.36
2023-06-21T20:40:04.383Z,25.30
2023-06-21T20:42:32.619Z,25.26
2023-06-21T20:45:02.305Z,25.26
2023-06-21T20:47:30.773Z,25.31
2023-06-21T20:50:00.389Z,25.36
2023-06-21T20:52:29.086Z,25.31
2023-06-21T20:54:57.722Z,25.19
2023-06-21T20:57:25.983Z,25.14
2023-06-21T20:59:54.276Z,25.09
2023-06-21T21:02:22.523Z,25.02
2023-06-21T21:04:52.656Z,24.97
2023-06-21T21:07:22.133Z,24.96
2023-06-21T21:09:50.555Z,24.92
2023-06-21T21:12:18.837Z,24.87
2023-06-21T21:14:47.083Z,24.84
2023-06-21T21:17:15.179Z,24.76
2023-06-21T21:19:43.534Z,24.69
2023-06-21T21:22:15.343Z,24.62
2023-06-21T21:24:45.239Z,24.57
2023-06-21T21:27:13.923Z,24.55
2023-06-21T21:29:42.005Z,24.44
2023-06-21T21:32:10.810Z,24.38
2023-06-21T21:34:38.972Z,24.36
2023-06-21T21:37:07.671Z,24.30
2023-06-21T21:39:36.419Z,24.25
2023-06-21T21:42:07.614Z,24.19
2023-06-21T21:44:35.765Z,24.09
2023-06-21T21:47:03.882Z,23.99
2023-06-21T21:49:32.531Z,23.93
2023-06-21T21:52:00.686Z,23.89
2023-06-21T21:54:28.809Z,23.89
2023-06-21T21:56:56.952Z,23.86
2023-06-21T21:59:26.394Z,23.83
2023-06-21T22:01:54.578Z,23.77
2023-06-21T22:04:22.724Z,23.76
2023-06-21T22:06:50.888Z,23.76
2023-06-21T22:09:19.114Z,23.81
2023-06-21T22:11:47.230Z,23.85
2023-06-21T22:14:16.566Z,23.87
2023-06-21T22:16:50.969Z,23.92
2023-06-21T22:19:19.834Z,23.88
2023-06-21T22:21:53.813Z,23.84
2023-06-21T22:24:23.194Z,23.82
2023-06-21T22:26:51.837Z,23.74
2023-06-21T22:29:21.288Z,23.64
2023-06-21T22:31:51.428Z,23.58
2023-06-21T22:34:20.918Z,23.63
2023-06-21T22:36:49.440Z,23.66
2023-06-21T22:39:17.681Z,23.59
2023-06-21T22:41:45.916Z,23.53
2023-06-21T22:44:14.686Z,23.52
2023-06-21T22:46:43.580Z,23.53
2023-06-21T22:49:13.289Z,23.75
2023-06-21T22:51:41.531Z,23.74
2023-06-21T22:54:12.254Z,23.71
2023-06-21T22:56:40.694Z,23.68
2023-06-21T22:59:09.056Z,23.62
2023-06-21T23:01:37.464Z,23.58
2023-06-21T23:04:06.411Z,23.53
2023-06-21T23:06:36.362Z,23.52
2023-06-21T23:09:05.067Z,23.47
2023-06-21T23:11:33.396Z,23.38
2023-06-21T23:14:01.879Z,23.29
2023-06-21T23:16:30.207Z,23.24
2023-06-21T23:18:59.653Z,23.21
2023-06-21T23:21:27.743Z,23.10
2023-06-21T23:23:57.389Z,23.01
2023-06-21T23:26:27.132Z,22.99
2023-06-21T23:28:56.932Z,22.95
2023-06-21T23:31:25.676Z,22.93
2023-06-21T23:33:53.903Z,22.92
2023-06-21T23:36:23.834Z,22.88
2023-06-21T23:38:56.015Z,22.89
2023-06-21T23:41:26.466Z,22.89
2023-06-21T23:43:59.700Z,22.86
2023-06-21T23:46:30.834Z,22.83
2023-06-21T23:49:00.067Z,22.79
2023-06-21T23:51:29.109Z,22.76
2023-06-21T23:53:57.546Z,22.72
2023-06-21T23:56:27.792Z,22.70
2023-06-21T23:58:56.507Z,22.74
